Time;durP1;ratioP1;P1;durP2;ratioP2;P2;SDS_P1;SDS_P2;PMS_P1;PMS_P2;Temp;Humidity;BMP_temperature;BMP_pressure;BME280_temperature;BME280_humidity;BME280_pressure;Samples;Min_cycle;Max_cycle;Signal;HPM_P1;HPM_P2
2021/06/04 00:02:04;;;;;;;5.95;4.00;;;;;;;16.96;53.50;94472.84;4936022;28;20141;-89
2021/06/04 00:04:30;;;;;;;7.18;4.22;;;;;;;17.01;53.33;94479.91;4935670;28;20422;-89
2021/06/04 00:06:56;;;;;;;7.20;4.20;;;;;;;16.99;52.38;94471.44;4933530;28;20337;-89
2021/06/04 00:09:21;;;;;;;6.30;4.35;;;;;;;17.06;52.17;94477.09;4938411;28;20500;-90
2021/06/04 00:11:54;;;;;;;4.65;4.13;;;;;;;17.02;52.02;94476.16;4935878;28;20047;-89
2021/06/04 00:14:22;;;;;;;8.27;4.72;;;;;;;16.97;52.90;94469.09;4937296;28;20388;-89
2021/06/04 00:16:53;;;;;;;4.97;4.20;;;;;;;17.03;52.77;94475.06;4934938;28;20479;-89
2021/06/04 00:19:21;;;;;;;6.05;4.80;;;;;;;17.06;52.00;94477.09;4925499;28;20048;-90
2021/06/04 00:21:54;;;;;;;4.90;4.40;;;;;;;17.04;51.45;94473.97;4912623;29;20028;-86
2021/06/04 00:24:21;;;;;;;11.88;4.70;;;;;;;17.03;51.91;94475.06;4916781;29;20043;-89
2021/06/04 00:26:48;;;;;;;5.28;4.10;;;;;;;17.02;51.90;94468.94;4916294;28;20416;-89
2021/06/04 00:29:15;;;;;;;5.78;4.40;;;;;;;17.11;51.50;94468.94;4894777;29;20122;-89
2021/06/04 00:31:41;;;;;;;6.40;4.72;;;;;;;17.08;51.11;94459.69;4900066;29;20488;-88
2021/06/04 00:34:07;;;;;;;7.57;4.82;;;;;;;17.13;50.29;94458.75;4917313;28;20071;-90
2021/06/04 00:36:33;;;;;;;4.40;4.00;;;;;;;17.03;50.28;94453.72;4911862;29;20063;-90
2021/06/04 00:39:00;;;;;;;4.95;4.00;;;;;;;17.04;50.02;94452.63;4912259;28;20044;-86
2021/06/04 00:41:32;;;;;;;8.63;4.72;;;;;;;17.08;49.77;94454.34;4917045;28;20126;-89
2021/06/04 00:43:58;;;;;;;7.80;5.45;;;;;;;17.11;50.09;94458.25;4920799;28;20733;-89
2021/06/04 00:46:25;;;;;;;6.40;4.22;;;;;;;17.12;49.61;94457.16;4917223;28;20170;-90
2021/06/04 00:48:52;;;;;;;7.00;4.10;;;;;;;17.06;50.22;94459.19;4930497;28;20020;-90
2021/06/04 00:51:28;;;;;;;6.18;4.72;;;;;;;17.08;50.09;94464.25;4921956;29;20194;-89
2021/06/04 00:53:55;;;;;;;6.18;4.10;;;;;;;17.07;50.07;94457.31;4919708;28;20061;-88
2021/06/04 00:56:23;;;;;;;4.60;4.20;;;;;;;17.04;49.52;94455.28;4921079;28;20369;-86
2021/06/04 00:58:49;;;;;;;7.25;4.43;;;;;;;17.08;49.31;94457.00;4918352;29;20078;-90
2021/06/04 01:01:18;;;;;;;5.63;5.03;;;;;;;16.91;49.76;94451.63;4920173;28;20081;-91
2021/06/04 01:03:48;;;;;;;4.75;4.25;;;;;;;16.99;49.65;94460.78;4919736;29;20044;-90
2021/06/04 01:06:51;;;;;;;4.45;3.88;;;;;;;17.06;48.94;94461.09;4919203;28;20039;-90
2021/06/04 01:09:42;;;;;;;5.43;4.55;;;;;;;17.09;48.32;94455.13;4920899;29;20036;-90
2021/06/04 01:12:29;;;;;;;4.25;3.85;;;;;;;17.01;48.92;94458.56;4935180;28;20043;-90
2021/06/04 01:15:16;;;;;;;6.10;4.35;;;;;;;16.94;49.18;94463.59;4919317;28;20046;-89
2021/06/04 01:17:55;;;;;;;6.28;4.47;;;;;;;16.84;49.71;94459.34;4919429;29;20695;-88
2021/06/04 01:20:27;;;;;;;4.50;4.10;;;;;;;16.80;50.32;94461.84;4921558;28;20060;-89
2021/06/04 01:23:11;;;;;;;8.05;4.30;;;;;;;16.84;50.66;94464.66;4921307;29;20411;-88
2021/06/04 01:25:36;;;;;;;4.82;4.20;;;;;;;16.88;49.60;94470.97;4920975;29;20058;-90
2021/06/04 01:28:26;;;;;;;4.80;3.92;;;;;;;16.65;49.83;94430.25;4919403;29;20035;-86
2021/06/04 01:31:06;;;;;;;6.10;4.22;;;;;;;16.83;49.82;94468.44;4918365;29;20143;-89
2021/06/04 01:33:49;;;;;;;7.78;4.95;;;;;;;16.83;50.11;94463.88;4919447;29;20174;-89
2021/06/04 01:36:22;;;;;;;7.70;4.40;;;;;;;16.83;50.56;94466.56;4914706;29;20057;-87
2021/06/04 01:38:50;;;;;;;5.95;4.35;;;;;;;16.54;50.91;94423.59;4915622;28;20043;-89
2021/06/04 01:41:20;;;;;;;6.90;4.95;;;;;;;16.66;51.61;94461.19;4920642;29;20054;-86
2021/06/04 01:43:50;;;;;;;5.25;4.57;;;;;;;16.76;51.60;94473.47;4919618;29;20040;-88
2021/06/04 01:46:23;;;;;;;5.07;4.57;;;;;;;16.77;51.49;94470.47;4922972;29;20075;-89
2021/06/04 01:48:51;;;;;;;4.95;4.10;;;;;;;16.65;52.21;94470.28;4922518;29;20040;-89
2021/06/04 01:51:25;;;;;;;6.55;4.43;;;;;;;16.72;51.02;94470.59;4920939;29;20038;-89
2021/06/04 01:54:02;;;;;;;5.15;4.18;;;;;;;16.66;51.44;94473.75;4922547;29;20670;-89
2021/06/04 01:56:38;;;;;;;7.68;4.85;;;;;;;16.68;51.03;94466.97;4923240;29;20484;-89
2021/06/04 01:59:08;;;;;;;7.40;5.15;;;;;;;16.58;51.50;94467.25;4902927;29;20071;-89
2021/06/04 02:01:40;;;;;;;4.95;4.30;;;;;;;16.50;52.24;94476.00;4921287;29;20477;-89
2021/06/04 02:04:16;;;;;;;4.97;4.53;;;;;;;16.44;53.94;94467.34;4920355;29;20074;-82
2021/06/04 02:06:43;;;;;;;4.90;4.40;;;;;;;16.44;53.56;94474.56;4923377;29;20035;-81
2021/06/04 02:09:12;;;;;;;5.22;4.55;;;;;;;16.39;54.70;94480.03;4919000;29;20047;-87
2021/06/04 02:11:39;;;;;;;7.05;4.47;;;;;;;16.36;53.62;94470.00;4921922;29;20150;-90
2021/06/04 02:14:09;;;;;;;5.30;4.10;;;;;;;16.44;53.98;94483.34;4915836;29;20142;-90
2021/06/04 02:16:49;;;;;;;5.43;4.82;;;;;;;16.44;53.41;94477.22;4901868;29;20488;-84
2021/06/04 02:19:49;;;;;;;6.70;5.15;;;;;;;16.38;53.84;94479.25;4926886;28;20126;-88
2021/06/04 02:22:41;;;;;;;6.65;4.60;;;;;;;16.28;54.09;94473.38;4918539;28;20039;-90
2021/06/04 02:25:18;;;;;;;5.80;5.03;;;;;;;16.28;53.66;94478.72;4934234;28;20033;-90
2021/06/04 02:27:53;;;;;;;6.38;5.00;;;;;;;16.38;53.74;94486.47;4943638;28;20078;-89
2021/06/04 02:30:42;;;;;;;5.10;4.68;;;;;;;16.32;53.41;94485.03;4935118;28;20043;-90
2021/06/04 02:33:10;;;;;;;7.03;4.60;;;;;;;16.22;53.88;94493.31;4938485;28;20073;-89
2021/06/04 02:35:44;;;;;;;6.95;4.70;;;;;;;16.27;54.13;94480.59;4936301;28;20280;-89
2021/06/04 02:38:19;;;;;;;4.90;4.37;;;;;;;16.27;54.00;94495.84;4938035;28;20106;-89
2021/06/04 02:40:49;;;;;;;6.03;5.43;;;;;;;16.18;53.80;94485.09;4934243;28;20102;-89
2021/06/04 02:43:25;;;;;;;5.10;4.50;;;;;;;16.17;53.14;94498.78;4938822;28;20050;-89
2021/06/04 02:46:21;;;;;;;5.60;5.10;;;;;;;16.05;53.32;94491.31;4939262;28;20035;-89
2021/06/04 02:48:49;;;;;;;5.50;4.28;;;;;;;15.99;53.24;94498.66;4939185;28;20119;-89
2021/06/04 02:51:56;;;;;;;7.63;6.47;;;;;;;16.04;54.03;94495.88;4936913;28;20066;-89
2021/06/04 02:54:30;;;;;;;10.75;5.40;;;;;;;16.08;55.06;94498.69;4938033;28;20051;-89
2021/06/04 02:57:05;;;;;;;7.65;4.93;;;;;;;16.10;54.35;94490.41;4937646;28;20564;-88
2021/06/04 02:59:41;;;;;;;6.97;5.45;;;;;;;16.25;54.18;94503.34;4935470;28;20058;-89
2021/06/04 03:02:13;;;;;;;5.95;5.43;;;;;;;16.18;54.31;94503.78;4934784;28;20142;-89
2021/06/04 03:04:43;;;;;;;7.57;5.28;;;;;;;16.30;53.77;94503.22;4935874;28;20035;-89
2021/06/04 03:07:17;;;;;;;7.78;5.53;;;;;;;16.27;53.67;94509.94;4937755;28;20023;-89
2021/06/04 03:09:44;;;;;;;7.45;5.00;;;;;;;16.27;53.27;94509.19;4939686;28;20027;-88
2021/06/04 03:12:21;;;;;;;5.45;4.90;;;;;;;16.30;53.40;94504.00;4936898;28;20065;-89
2021/06/04 03:14:49;;;;;;;5.18;4.68;;;;;;;16.21;53.28;94508.50;4935569;28;20047;-89
2021/06/04 03:17:15;;;;;;;5.20;4.72;;;;;;;16.14;53.57;94513.47;4937270;28;20566;-89
2021/06/04 03:19:41;;;;;;;6.93;5.03;;;;;;;16.17;54.09;94509.44;4935060;28;20054;-87
2021/06/04 03:22:30;;;;;;;7.25;5.07;;;;;;;16.12;54.44;94517.56;4937434;28;20016;-89
2021/06/04 03:25:04;;;;;;;14.98;5.78;;;;;;;16.17;54.23;94525.44;4935660;28;20035;-86
2021/06/04 03:27:30;;;;;;;5.97;4.65;;;;;;;16.02;53.73;94527.41;4940437;28;20030;-90
2021/06/04 03:29:55;;;;;;;7.32;4.65;;;;;;;16.14;54.94;94534.03;4934962;28;20523;-90
2021/06/04 03:32:21;;;;;;;7.50;4.63;;;;;;;16.11;54.76;94518.66;4937997;28;20339;-90
2021/06/04 03:34:47;;;;;;;5.95;4.55;;;;;;;16.29;55.18;94530.97;4934293;28;20096;-86
2021/06/04 03:37:15;;;;;;;5.30;4.80;;;;;;;16.32;53.72;94535.72;4938221;28;20054;-89
2021/06/04 03:39:44;;;;;;;5.43;4.90;;;;;;;16.31;55.13;94523.47;4938422;28;20062;-88
2021/06/04 03:42:14;;;;;;;5.95;5.05;;;;;;;16.34;53.71;94536.19;4936666;28;20047;-90
2021/06/04 03:44:43;;;;;;;8.70;5.25;;;;;;;16.33;53.50;94534.59;4936394;28;20039;-89
2021/06/04 03:47:09;;;;;;;7.45;5.35;;;;;;;16.40;54.46;94535.75;4934064;28;20712;-90
2021/06/04 03:49:36;;;;;;;5.55;5.05;;;;;;;16.39;54.35;94533.38;4936712;28;20039;-89
2021/06/04 03:52:05;;;;;;;8.05;5.00;;;;;;;16.54;56.32;94533.00;4934225;28;20484;-86
2021/06/04 03:54:36;;;;;;;6.78;5.22;;;;;;;16.52;55.93;94521.06;4936602;28;20023;-83
2021/06/04 03:57:04;;;;;;;7.32;5.80;;;;;;;16.61;56.62;94532.59;4934681;28;20356;-85
2021/06/04 03:59:30;;;;;;;18.02;5.18;;;;;;;16.65;56.90;94531.66;4935860;28;20043;-90
2021/06/04 04:01:59;;;;;;;9.98;5.72;;;;;;;16.79;56.73;94540.34;4931280;28;20042;-89
2021/06/04 04:04:25;;;;;;;11.23;5.85;;;;;;;16.61;56.45;94520.03;4936051;28;20575;-89
2021/06/04 04:06:51;;;;;;;15.32;5.75;;;;;;;16.68;57.02;94531.03;4935662;28;20031;-88
2021/06/04 04:09:18;;;;;;;11.45;5.78;;;;;;;16.93;57.77;94544.78;4937333;28;20102;-88
2021/06/04 04:11:46;;;;;;;14.00;5.70;;;;;;;16.87;55.06;94530.78;4937432;28;20047;-87
2021/06/04 04:14:11;;;;;;;9.35;5.53;;;;;;;16.89;56.33;94533.94;4937509;28;20046;-90
2021/06/04 04:16:37;;;;;;;7.05;5.75;;;;;;;17.03;55.58;94539.16;4935736;28;20043;-90
2021/06/04 04:19:04;;;;;;;9.20;5.60;;;;;;;17.10;55.12;94542.97;4939819;28;20046;-89
2021/06/04 04:21:29;;;;;;;8.52;5.40;;;;;;;17.10;54.10;94547.50;4941073;28;20515;-87
2021/06/04 04:24:00;;;;;;;6.53;5.60;;;;;;;17.12;54.38;94545.28;4940428;28;20083;-89
2021/06/04 04:26:31;;;;;;;6.43;5.80;;;;;;;17.16;55.45;94546.25;4938314;28;20098;-86
2021/06/04 04:28:57;;;;;;;11.38;6.45;;;;;;;17.14;55.46;94543.13;4931234;28;20419;-87
2021/06/04 04:31:26;;;;;;;14.20;6.55;;;;;;;17.26;55.59;94548.63;4940188;28;20548;-89
2021/06/04 04:33:53;;;;;;;9.80;5.68;;;;;;;17.30;55.41;94557.59;4940897;28;20023;-89
2021/06/04 04:36:22;;;;;;;6.50;4.75;;;;;;;17.37;54.59;94552.59;4939169;28;20039;-89
2021/06/04 04:38:48;;;;;;;8.48;5.20;;;;;;;17.38;53.95;94551.50;4936789;28;20047;-90
2021/06/04 04:41:13;;;;;;;7.38;4.22;;;;;;;17.44;50.70;94547.56;4938815;28;20395;-89
2021/06/04 04:43:42;;;;;;;8.10;3.85;;;;;;;17.51;48.19;94552.44;4941822;28;20356;-89
2021/06/04 04:46:09;;;;;;;5.82;3.63;;;;;;;17.57;48.02;94548.53;4939179;28;20045;-88
2021/06/04 04:48:35;;;;;;;6.45;4.05;;;;;;;17.70;47.20;94555.63;4939246;28;20027;-86
2021/06/04 04:51:02;;;;;;;7.15;4.00;;;;;;;17.83;46.72;94545.88;4937917;28;20069;-90
2021/06/04 04:53:27;;;;;;;4.15;3.60;;;;;;;17.83;46.08;94548.56;4942671;28;20059;-90
2021/06/04 04:55:53;;;;;;;4.35;3.50;;;;;;;17.90;46.54;94559.56;4936775;28;20134;-89
2021/06/04 04:58:19;;;;;;;7.38;4.22;;;;;;;17.88;44.95;94551.88;4938136;28;20055;-88
2021/06/04 05:00:45;;;;;;;6.00;3.40;;;;;;;17.97;45.26;94567.91;4933543;28;20243;-89
2021/06/04 05:03:18;;;;;;;4.80;3.60;;;;;;;18.00;46.38;94568.03;4929128;28;20039;-89
2021/06/04 05:05:43;;;;;;;5.35;3.45;;;;;;;18.00;46.01;94561.91;4935415;28;20416;-88
2021/06/04 05:08:09;;;;;;;14.60;4.20;;;;;;;18.05;46.76;94557.19;4938353;28;20126;-89
2021/06/04 05:10:35;;;;;;;5.75;3.47;;;;;;;18.10;47.10;94543.66;4935908;28;20054;-90
2021/06/04 05:13:06;;;;;;;6.45;3.78;;;;;;;18.43;45.36;94561.84;4928724;28;20031;-89
2021/06/04 05:15:34;;;;;;;4.63;3.95;;;;;;;18.60;44.59;94567.19;4940774;28;20019;-90
2021/06/04 05:17:59;;;;;;;11.15;3.38;;;;;;;18.54;46.47;94558.53;4937699;28;20039;-89
2021/06/04 05:20:25;;;;;;;5.72;3.50;;;;;;;18.62;44.38;94550.81;4936322;28;20725;-89
2021/06/04 05:22:53;;;;;;;8.75;4.13;;;;;;;18.79;44.18;94569.47;4937912;28;20043;-90
2021/06/04 05:25:22;;;;;;;3.90;3.47;;;;;;;18.88;43.17;94572.91;4939323;28;20078;-89
2021/06/04 05:27:51;;;;;;;3.67;3.15;;;;;;;18.89;41.88;94575.28;4939123;28;20023;-91
2021/06/04 05:30:24;;;;;;;11.48;3.63;;;;;;;18.96;42.77;94574.78;4937707;28;20586;-89
2021/06/04 05:32:49;;;;;;;5.43;3.10;;;;;;;19.12;42.35;94578.47;4933898;28;20070;-90
2021/06/04 05:35:16;;;;;;;5.00;3.15;;;;;;;19.24;42.54;94581.25;4931364;28;20134;-90
2021/06/04 05:37:41;;;;;;;7.57;3.28;;;;;;;19.42;41.66;94588.09;4926785;28;20058;-87
2021/06/04 05:40:11;;;;;;;3.95;2.78;;;;;;;19.56;41.99;94579.03;4936657;28;20023;-89
2021/06/04 05:42:37;;;;;;;7.13;3.30;;;;;;;19.72;42.65;94574.69;4936887;28;20043;-89
2021/06/04 05:45:05;;;;;;;5.18;3.20;;;;;;;19.90;41.12;94579.59;4929332;28;20261;-89
2021/06/04 05:47:30;;;;;;;4.35;3.25;;;;;;;20.07;42.19;94578.66;4938136;28;20036;-89
2021/06/04 05:49:55;;;;;;;9.68;3.60;;;;;;;20.33;41.00;94592.66;4936799;28;20428;-89
2021/06/04 05:52:21;;;;;;;5.07;3.65;;;;;;;20.48;39.96;94577.81;4938744;28;20077;-90
2021/06/04 05:54:47;;;;;;;6.40;3.67;;;;;;;20.70;40.21;94584.72;4939726;28;20027;-90
2021/06/04 05:57:14;;;;;;;8.60;3.38;;;;;;;21.26;40.19;94588.50;4939536;28;20039;-87
2021/06/04 05:59:40;;;;;;;5.97;3.20;;;;;;;22.53;38.73;94586.09;4936326;28;20098;-88
2021/06/04 06:02:06;;;;;;;7.93;3.33;;;;;;;24.45;35.98;94578.66;4937413;28;20042;-89
2021/06/04 06:04:32;;;;;;;6.13;3.20;;;;;;;26.24;32.78;94584.66;4933919;28;20035;-88
2021/06/04 06:06:58;;;;;;;5.43;2.75;;;;;;;27.88;28.83;94576.94;4907501;28;21019;-90
2021/06/04 06:09:23;;;;;;;2.80;2.25;;;;;;;28.59;28.31;94573.81;4933691;28;20074;-90
2021/06/04 06:11:49;;;;;;;6.53;2.30;;;;;;;28.91;27.26;94573.91;4936271;28;20158;-89
2021/06/04 06:14:16;;;;;;;5.15;2.33;;;;;;;28.95;27.96;94569.25;4936403;28;20039;-85
2021/06/04 06:16:42;;;;;;;4.18;2.97;;;;;;;29.83;26.85;94577.44;4936153;28;20042;-89
2021/06/04 06:19:09;;;;;;;4.88;2.72;;;;;;;30.18;25.91;94562.97;4935912;28;20047;-90
2021/06/04 06:21:36;;;;;;;4.45;2.75;;;;;;;31.14;25.22;94568.75;4938906;28;20030;-86
2021/06/04 06:24:04;;;;;;;6.57;2.88;;;;;;;31.59;24.37;94577.03;4935828;28;20051;-87
2021/06/04 06:26:30;;;;;;;13.38;2.50;;;;;;;32.03;23.63;94573.50;4935422;28;20125;-83
2021/06/04 06:28:58;;;;;;;6.57;2.75;;;;;;;32.86;22.89;94575.66;4937809;28;20133;-91
2021/06/04 06:31:27;;;;;;;5.80;2.78;;;;;;;33.98;22.22;94566.13;4935643;28;20050;-91
2021/06/04 06:33:53;;;;;;;3.92;1.95;;;;;;;34.50;21.19;94579.28;4936503;28;20384;-91
2021/06/04 06:36:26;;;;;;;4.30;2.40;;;;;;;34.79;20.38;94558.31;4938888;28;20025;-90
2021/06/04 06:38:52;;;;;;;4.97;2.25;;;;;;;35.49;20.18;94561.41;4931452;28;20134;-91
2021/06/04 06:41:17;;;;;;;4.20;2.03;;;;;;;35.92;19.19;94563.88;4928805;28;20039;-86
2021/06/04 06:43:47;;;;;;;3.60;1.88;;;;;;;35.05;19.88;94564.78;4931818;28;20071;-89
2021/06/04 06:46:16;;;;;;;4.63;2.38;;;;;;;35.80;19.41;94558.31;4937466;28;20047;-90
2021/06/04 06:48:42;;;;;;;4.57;2.72;;;;;;;36.25;19.17;94561.09;4933750;28;20417;-91
2021/06/04 06:51:09;;;;;;;3.50;2.25;;;;;;;36.93;19.13;94555.22;4922755;28;20040;-91
2021/06/04 06:53:36;;;;;;;4.22;2.15;;;;;;;37.58;17.84;94563.84;4929889;28;20047;-88
2021/06/04 06:56:03;;;;;;;3.60;2.20;;;;;;;37.81;17.18;94557.19;4938845;28;20958;-90
2021/06/04 06:58:28;;;;;;;7.63;2.40;;;;;;;37.90;18.19;94559.25;4930659;28;20047;-91
2021/06/04 07:00:55;;;;;;;3.13;1.63;;;;;;;38.56;16.90;94563.69;4933824;28;20023;-89
2021/06/04 07:03:28;;;;;;;5.40;2.20;;;;;;;39.13;16.87;94556.81;4917010;29;20082;-91
2021/06/04 07:05:56;;;;;;;4.20;1.60;;;;;;;39.63;16.50;94577.75;4932913;28;20046;-87
2021/06/04 07:08:21;;;;;;;3.60;2.00;;;;;;;39.69;16.63;94572.38;4940593;28;20952;-92
2021/06/04 07:10:47;;;;;;;6.43;2.22;;;;;;;39.93;16.03;94565.06;4937792;28;20114;-90
2021/06/04 07:13:15;;;;;;;4.60;1.70;;;;;;;39.75;15.29;94576.88;4938802;28;20051;-89
2021/06/04 07:15:42;;;;;;;5.43;2.17;;;;;;;39.72;16.34;94572.25;4933575;28;20119;-83
2021/06/04 07:18:08;;;;;;;4.60;2.00;;;;;;;40.20;16.02;94572.66;4937848;28;20039;-89
2021/06/04 07:20:36;;;;;;;3.72;1.52;;;;;;;39.81;15.89;94569.50;4920775;29;20051;-89
2021/06/04 07:23:06;;;;;;;4.68;2.20;;;;;;;40.00;15.59;94583.38;4937101;28;20493;-83
2021/06/04 07:25:34;;;;;;;2.20;1.67;;;;;;;40.05;15.48;94577.22;4922232;28;20043;-89
2021/06/04 07:28:00;;;;;;;1.88;1.65;;;;;;;40.63;15.55;94577.13;4921599;28;20415;-89
2021/06/04 07:30:30;;;;;;;3.28;1.70;;;;;;;40.46;15.31;94573.88;4937004;28;20476;-88
2021/06/04 07:33:00;;;;;;;6.55;2.05;;;;;;;40.50;15.31;94579.25;4939863;28;20562;-89
2021/06/04 07:35:26;;;;;;;2.63;1.90;;;;;;;40.05;15.54;94588.31;4929816;28;20146;-88
2021/06/04 07:37:52;;;;;;;7.45;2.05;;;;;;;39.67;15.75;94589.44;4936689;28;20031;-89
2021/06/04 07:40:21;;;;;;;3.63;1.95;;;;;;;40.59;15.55;94582.78;4936024;28;20122;-88
2021/06/04 07:42:48;;;;;;;2.88;1.77;;;;;;;41.43;15.09;94580.16;4933365;29;20062;-88
2021/06/04 07:45:14;;;;;;;7.50;2.08;;;;;;;41.90;14.63;94575.94;4937076;28;20162;-85
2021/06/04 07:47:40;;;;;;;4.40;2.10;;;;;;;42.24;13.87;94586.50;4931697;28;20307;-87
2021/06/04 07:50:11;;;;;;;2.58;2.13;;;;;;;41.14;14.54;94588.28;4932013;28;20035;-86
2021/06/04 07:52:37;;;;;;;5.00;2.42;;;;;;;40.81;15.57;94585.38;4917554;28;20044;-88
2021/06/04 07:55:05;;;;;;;5.60;2.03;;;;;;;41.78;14.89;94588.03;4937771;28;20035;-89
2021/06/04 07:57:30;;;;;;;4.07;2.20;;;;;;;43.06;13.96;94596.13;4922230;29;20023;-88
2021/06/04 07:59:56;;;;;;;5.05;1.70;;;;;;;43.92;12.83;94588.19;4938815;28;20043;-88
2021/06/04 08:02:21;;;;;;;5.38;2.10;;;;;;;44.40;13.70;94598.94;4933292;28;20043;-88
2021/06/04 08:04:47;;;;;;;5.40;2.22;;;;;;;44.61;13.05;94599.69;4935696;28;20040;-89
2021/06/04 08:07:13;;;;;;;2.47;2.28;;;;;;;44.06;12.88;94596.97;4935366;28;20051;-88
2021/06/04 08:09:42;;;;;;;9.40;2.47;;;;;;;43.10;13.60;94600.31;4922819;28;20492;-85
2021/06/04 08:12:09;;;;;;;3.58;2.13;;;;;;;41.66;14.52;94605.66;4919453;29;20063;-88
2021/06/04 08:14:35;;;;;;;4.43;2.60;;;;;;;40.42;15.91;94614.06;4933336;28;20198;-83
2021/06/04 08:17:01;;;;;;;6.53;2.50;;;;;;;39.19;16.85;94604.75;4937535;28;20329;-85
2021/06/04 08:19:30;;;;;;;2.85;2.17;;;;;;;38.05;17.17;94621.84;4935409;28;20129;-88
2021/06/04 08:21:56;;;;;;;4.78;2.42;;;;;;;36.94;18.43;94611.09;4937102;28;20035;-88
2021/06/04 08:24:28;;;;;;;9.07;2.90;;;;;;;36.40;19.31;94609.81;4935794;28;20035;-89
2021/06/04 08:26:54;;;;;;;8.90;2.83;;;;;;;35.74;19.60;94606.78;4935554;28;20050;-87
2021/06/04 08:29:20;;;;;;;4.50;2.97;;;;;;;34.81;20.17;94605.31;4935925;28;20039;-88
2021/06/04 08:31:46;;;;;;;4.15;2.60;;;;;;;33.78;21.61;94601.72;4935844;28;20093;-89
2021/06/04 08:34:12;;;;;;;8.45;3.05;;;;;;;34.53;20.29;94612.13;4936709;28;20418;-93
2021/06/04 08:36:40;;;;;;;5.63;2.30;;;;;;;34.44;20.39;94608.41;4935796;28;20034;-88
2021/06/04 08:39:18;;;;;;;5.63;2.78;;;;;;;34.06;20.99;94607.91;4936166;28;20035;-89
2021/06/04 08:42:01;;;;;;;6.07;2.47;;;;;;;34.73;20.33;94610.19;4936631;28;20051;-91
2021/06/04 08:44:44;;;;;;;9.45;2.78;;;;;;;35.53;21.04;94613.56;4920719;28;20522;-90
2021/06/04 08:47:20;;;;;;;5.35;2.42;;;;;;;35.88;19.45;94614.69;4937058;28;20527;-91
2021/06/04 08:50:48;;;;;;;5.22;2.95;;;;;;;35.88;19.15;94604.47;4936082;28;20055;-91
2021/06/04 08:53:19;;;;;;;5.25;2.70;;;;;;;35.69;19.73;94605.34;4851074;29;20049;-86
2021/06/04 08:55:54;;;;;;;3.45;2.10;;;;;;;34.98;20.41;94614.38;4845708;29;20443;-88
2021/06/04 08:58:39;;;;;;;4.93;2.10;;;;;;;34.28;21.19;94620.06;4915031;28;20504;-89
2021/06/04 09:01:40;;;;;;;6.03;2.45;;;;;;;33.57;20.85;94609.50;4920232;28;20054;-89
2021/06/04 09:04:09;;;;;;;3.03;2.08;;;;;;;33.18;21.64;94608.13;4941145;28;20126;-89
2021/06/04 09:06:37;;;;;;;4.30;2.55;;;;;;;32.98;20.78;94621.69;4940613;28;20027;-90
2021/06/04 09:09:16;;;;;;;2.53;2.20;;;;;;;32.89;22.95;94609.69;4938844;28;20041;-88
2021/06/04 09:11:42;;;;;;;8.30;2.55;;;;;;;32.89;22.58;94602.22;4930002;28;20078;-90
2021/06/04 09:14:08;;;;;;;4.57;2.65;;;;;;;32.46;22.08;94607.41;4939703;28;20107;-87
2021/06/04 09:16:43;;;;;;;3.47;2.47;;;;;;;31.84;22.80;94610.38;4940410;28;20099;-89
2021/06/04 09:19:19;;;;;;;;;;;;;;;31.77;24.19;94615.91;4939964;28;20463;-90
2021/06/04 09:21:45;;;;;;;3.85;2.88;;;;;;;31.97;24.70;94603.22;4941621;28;19918;-89
2021/06/04 09:24:29;;;;;;;4.53;2.85;;;;;;;31.70;23.46;94608.56;4940928;28;20047;-90
2021/06/04 09:26:55;;;;;;;3.57;2.43;;;;;;;31.05;23.79;94603.94;4935509;28;20134;-90
2021/06/04 09:29:27;;;;;;;7.63;2.88;;;;;;;30.69;24.92;94614.22;4939439;28;20054;-90
2021/06/04 09:32:20;;;;;;;5.50;2.33;;;;;;;30.59;26.04;94606.88;4932904;28;20519;-89
2021/06/04 09:34:46;;;;;;;4.80;2.95;;;;;;;29.27;26.02;94602.72;4939706;28;20137;-89
2021/06/04 09:37:30;;;;;;;6.32;2.67;;;;;;;29.31;26.04;94611.72;4938341;28;20027;-87
2021/06/04 09:40:20;;;;;;;8.23;3.25;;;;;;;28.76;26.91;94606.50;4939142;28;20091;-86
2021/06/04 09:42:59;;;;;;;4.07;3.10;;;;;;;28.93;26.22;94593.34;4940738;28;20027;-88
2021/06/04 09:45:39;;;;;;;6.38;2.38;;;;;;;29.37;26.36;94591.06;4939614;28;20491;-90
2021/06/04 09:48:08;;;;;;;3.95;2.50;;;;;;;29.56;25.36;94595.38;4938286;28;20187;-87
2021/06/04 09:50:33;;;;;;;2.90;2.20;;;;;;;29.32;25.47;94586.03;4936455;28;20077;-88
2021/06/04 09:53:11;;;;;;;4.35;2.78;;;;;;;29.93;25.19;94590.28;4933959;28;20184;-88
2021/06/04 09:55:39;;;;;;;3.53;2.28;;;;;;;30.08;25.11;94596.50;4934974;28;20134;-90
2021/06/04 09:58:07;;;;;;;5.60;3.22;;;;;;;30.32;24.98;94570.31;4938038;28;20026;-90
2021/06/04 10:00:39;;;;;;;3.72;2.00;;;;;;;30.34;24.84;94582.41;4937243;28;20090;-86
2021/06/04 10:03:25;;;;;;;5.93;2.40;;;;;;;30.69;24.87;94581.47;4938171;28;20046;-89
2021/06/04 10:06:08;;;;;;;6.93;2.20;;;;;;;30.85;23.72;94573.59;4917558;28;20047;-90
2021/06/04 10:08:48;;;;;;;5.47;2.60;;;;;;;30.87;23.62;94571.25;4933889;28;20054;-86
2021/06/04 10:11:23;;;;;;;2.97;2.00;;;;;;;30.74;24.56;94583.03;4936392;28;20050;-88
2021/06/04 10:14:15;;;;;;;4.78;2.22;;;;;;;30.91;24.24;94582.16;4940601;28;20049;-90
2021/06/04 10:19:16;;;;;;;4.68;1.85;;;;;;;29.89;23.53;94581.34;4940609;28;20607;-89
2021/06/04 10:21:42;;;;;;;2.00;1.77;;;;;;;29.59;23.68;94576.31;4942657;28;20179;-90
2021/06/04 10:24:32;;;;;;;1.90;1.70;;;;;;;29.65;25.79;94572.03;4940197;28;20041;-91
2021/06/04 10:27:02;;;;;;;4.63;2.50;;;;;;;29.72;24.56;94579.38;4936882;28;20150;-83
2021/06/04 10:29:29;;;;;;;3.63;2.38;;;;;;;29.97;25.02;94573.94;4933999;28;20040;-91
2021/06/04 10:32:07;;;;;;;3.92;2.30;;;;;;;29.04;25.76;94572.34;4934006;28;20047;-88
2021/06/04 10:35:00;;;;;;;4.95;2.75;;;;;;;28.96;25.82;94578.97;4926705;28;20048;-87
2021/06/04 10:37:38;;;;;;;5.57;2.65;;;;;;;28.66;25.45;94573.81;4937164;28;20042;-86
2021/06/04 10:40:08;;;;;;;8.82;2.58;;;;;;;28.16;26.54;94572.84;4936126;28;20020;-87
2021/06/04 10:43:15;;;;;;;5.03;2.63;;;;;;;28.23;26.50;94572.88;4939722;28;20140;-90
2021/06/04 10:45:47;;;;;;;10.77;3.03;;;;;;;28.44;26.38;94579.16;4938046;28;20035;-89
2021/06/04 10:48:37;;;;;;;3.78;2.30;;;;;;;28.73;26.77;94574.66;4938776;28;20043;-90
2021/06/04 10:51:22;;;;;;;3.42;2.40;;;;;;;28.74;27.37;94569.97;4938330;28;20043;-89
2021/06/04 10:54:08;;;;;;;2.85;2.10;;;;;;;28.76;27.06;94568.44;4937904;28;20044;-89
2021/06/04 10:56:43;;;;;;;6.68;2.35;;;;;;;29.03;27.34;94573.53;4920269;28;20058;-89
2021/06/04 10:59:47;;;;;;;4.72;2.35;;;;;;;29.12;27.11;94576.66;4940212;28;20047;-89
2021/06/04 11:02:19;;;;;;;6.75;3.15;;;;;;;28.99;26.12;94573.53;4938600;28;20400;-88
2021/06/04 11:05:04;;;;;;;6.78;3.13;;;;;;;29.08;25.84;94568.47;4938298;28;20054;-88
2021/06/04 11:07:41;;;;;;;3.10;2.15;;;;;;;28.65;25.63;94567.59;4936344;28;20071;-88
2021/06/04 11:10:13;;;;;;;5.70;2.13;;;;;;;28.08;26.77;94571.22;4927557;28;20035;-88
2021/06/04 11:12:52;;;;;;;5.50;2.90;;;;;;;28.20;27.00;94568.22;4939532;28;20131;-89
2021/06/04 11:15:30;;;;;;;5.25;2.40;;;;;;;28.62;26.04;94562.94;4932026;28;20040;-88
2021/06/04 11:18:03;;;;;;;6.05;2.08;;;;;;;28.80;25.66;94558.34;4932956;28;20137;-89
2021/06/04 11:20:59;;;;;;;4.68;1.80;;;;;;;29.00;26.75;94549.81;4922564;28;20074;-88
2021/06/04 11:23:43;;;;;;;5.38;2.10;;;;;;;29.04;26.85;94556.03;4916725;28;20047;-88
2021/06/04 11:26:16;;;;;;;4.50;3.08;;;;;;;29.15;25.90;94551.38;4912824;28;20061;-89
2021/06/04 11:28:58;;;;;;;8.20;2.10;;;;;;;29.23;26.37;94550.22;4934132;28;20071;-87
2021/06/04 11:31:56;;;;;;;3.33;2.25;;;;;;;28.70;24.65;94541.94;4923207;28;20058;-88
2021/06/04 11:34:28;;;;;;;2.63;1.95;;;;;;;27.89;25.42;94545.13;4937278;28;20123;-83
2021/06/04 11:36:54;;;;;;;5.22;2.05;;;;;;;28.46;25.69;94527.13;4936732;28;20038;-87
2021/06/04 11:39:32;;;;;;;3.63;2.40;;;;;;;28.58;27.28;94529.50;4938950;28;20030;-86
2021/06/04 11:42:02;;;;;;;4.05;2.20;;;;;;;28.69;25.35;94527.56;4921499;28;20051;-87
2021/06/04 11:44:42;;;;;;;4.93;2.90;;;;;;;28.38;25.35;94522.84;4934205;28;20550;-84
2021/06/04 11:47:13;;;;;;;4.88;2.22;;;;;;;27.81;26.44;94532.66;4924797;28;20505;-85
2021/06/04 11:49:57;;;;;;;5.60;2.60;;;;;;;27.40;26.68;94537.41;4931651;28;20137;-87
2021/06/04 11:52:48;;;;;;;4.53;2.17;;;;;;;27.44;26.52;94522.72;4928404;28;20046;-88
2021/06/04 11:55:25;;;;;;;4.05;2.63;;;;;;;27.43;26.92;94531.22;4930407;28;20647;-88
2021/06/04 11:57:59;;;;;;;7.75;3.22;;;;;;;27.68;27.36;94526.75;4938631;28;20479;-90
2021/06/04 12:00:25;;;;;;;3.00;2.80;;;;;;;27.71;27.58;94519.81;4920107;28;20603;-87